Terminal Aerodrome Forecast
Issued by NWS

Home | Current Version | Previous Version | Text Only | Print | Product List | Glossary On
Versions: 1 2 3 4 5 6 7 8 9 10 11 12 13
000
FTUS45 KABQ 242341
TAFTCC
TAF
KTCC 242341Z 2500/2524 24015G25KT P6SM SKC
     FM250200 28010KT P6SM SKC
     FM250900 33010KT P6SM FEW080
     FM251400 03022G35KT P6SM FEW025 SCT050
     FM251700 07022G30KT P6SM FEW025 SCT050=

USA.gov is the U.S. government's official web portal to all federal, state and local government web resources and services.